createdAt,value
2018-11-25T00:02:19.112Z,92.00
2018-11-25T00:05:17.729Z,91.90
2018-11-25T00:08:16.242Z,91.50
2018-11-25T00:11:14.703Z,91.20
2018-11-25T00:14:13.047Z,90.80
2018-11-25T00:17:11.566Z,90.60
2018-11-25T00:20:09.333Z,90.50
2018-11-25T00:23:07.850Z,90.40
2018-11-25T00:26:06.448Z,90.40
2018-11-25T00:29:04.792Z,90.40
2018-11-25T00:32:03.848Z,90.30
2018-11-25T00:35:02.246Z,90.10
2018-11-25T00:38:00.571Z,90.20
2018-11-25T00:40:58.765Z,90.30
2018-11-25T00:43:57.123Z,90.20
2018-11-25T00:46:55.442Z,90.50
2018-11-25T00:49:53.663Z,90.80
2018-11-25T00:52:51.634Z,91.00
2018-11-25T00:55:49.978Z,90.90
2018-11-25T00:58:48.681Z,91.10
2018-11-25T01:01:47.544Z,91.00
2018-11-25T01:04:46.183Z,91.10
2018-11-25T01:07:44.487Z,91.70
2018-11-25T01:10:42.981Z,91.90
2018-11-25T01:13:40.896Z,91.90
2018-11-25T01:16:51.330Z,91.80
2018-11-25T01:19:49.603Z,92.10
2018-11-25T01:22:47.898Z,92.20
2018-11-25T01:25:46.286Z,91.90
2018-11-25T01:28:44.845Z,91.80
2018-11-25T01:31:42.993Z,91.40
2018-11-25T01:34:41.269Z,91.10
2018-11-25T01:37:39.611Z,90.90
2018-11-25T01:40:38.788Z,90.90
2018-11-25T01:43:37.022Z,90.80
2018-11-25T01:46:35.055Z,90.90
2018-11-25T01:49:33.584Z,91.00
2018-11-25T01:52:31.722Z,91.10
2018-11-25T01:55:32.157Z,91.20
2018-11-25T01:58:30.554Z,91.30
2018-11-25T02:01:28.738Z,91.50
2018-11-25T02:04:26.661Z,91.40
2018-11-25T02:07:26.142Z,91.60
2018-11-25T02:10:25.215Z,91.60
2018-11-25T02:13:23.329Z,91.60
2018-11-25T02:16:21.273Z,91.80
2018-11-25T02:19:19.116Z,91.60
2018-11-25T02:22:17.274Z,91.50
2018-11-25T02:25:15.344Z,91.30
2018-11-25T02:28:13.724Z,91.10
2018-11-25T02:31:11.965Z,91.20
2018-11-25T02:34:10.240Z,91.20
2018-11-25T02:37:08.637Z,91.10
2018-11-25T02:40:06.791Z,91.30
2018-11-25T02:43:04.843Z,91.20
2018-11-25T02:46:03.285Z,91.20
2018-11-25T02:49:01.536Z,91.50
2018-11-25T02:52:00.293Z,92.10
2018-11-25T02:54:58.592Z,91.90
2018-11-25T02:57:57.032Z,91.90
2018-11-25T03:00:55.631Z,91.90
2018-11-25T03:03:54.034Z,91.60
2018-11-25T03:06:52.246Z,91.80
2018-11-25T03:09:50.625Z,91.40
2018-11-25T03:12:48.994Z,91.80
2018-11-25T03:15:47.502Z,92.20
2018-11-25T03:18:45.751Z,92.40
2018-11-25T03:21:44.211Z,92.20
2018-11-25T03:24:42.592Z,92.30
2018-11-25T03:27:40.952Z,92.60
2018-11-25T03:30:43.392Z,92.90
2018-11-25T03:33:41.806Z,92.80
2018-11-25T03:36:40.976Z,92.70
2018-11-25T03:39:39.230Z,92.70
2018-11-25T03:42:37.251Z,92.40
2018-11-25T03:45:36.371Z,92.70
2018-11-25T03:48:34.522Z,93.10
2018-11-25T03:51:32.712Z,93.30
2018-11-25T03:54:30.988Z,93.20
2018-11-25T03:57:29.108Z,93.20
2018-11-25T04:00:32.695Z,93.00
2018-11-25T04:03:32.149Z,92.80
2018-11-25T04:06:30.530Z,92.60
2018-11-25T04:09:30.909Z,92.50
2018-11-25T04:12:29.853Z,92.80
2018-11-25T04:15:30.335Z,92.90
2018-11-25T04:18:28.845Z,92.90
2018-11-25T04:21:27.218Z,93.30
2018-11-25T04:24:25.363Z,93.30
2018-11-25T04:27:23.536Z,93.00
2018-11-25T04:30:26.732Z,92.70
2018-11-25T04:33:24.971Z,92.30
2018-11-25T04:36:23.204Z,92.60
2018-11-25T04:39:23.639Z,93.20
2018-11-25T04:42:22.123Z,92.90
2018-11-25T04:45:21.423Z,93.30
2018-11-25T04:48:19.966Z,93.20
2018-11-25T04:51:18.084Z,93.10
2018-11-25T04:54:16.004Z,93.10
2018-11-25T04:57:14.069Z,93.30
2018-11-25T05:00:12.707Z,93.70
2018-11-25T05:03:10.905Z,93.90
2018-11-25T05:06:09.353Z,93.70
2018-11-25T05:09:07.948Z,93.30
2018-11-25T05:12:06.424Z,92.70
2018-11-25T05:15:04.674Z,92.60
2018-11-25T05:18:02.830Z,92.30
2018-11-25T05:21:01.650Z,92.40
2018-11-25T05:23:59.560Z,91.90
2018-11-25T05:26:57.840Z,92.00
2018-11-25T05:29:56.511Z,92.10
2018-11-25T05:32:54.879Z,92.20
2018-11-25T05:35:53.363Z,92.10
2018-11-25T05:38:51.630Z,92.20
2018-11-25T05:41:49.745Z,92.00
2018-11-25T05:44:47.819Z,91.90
2018-11-25T05:47:46.179Z,91.80
2018-11-25T05:50:44.467Z,91.80
2018-11-25T05:53:42.560Z,91.80
2018-11-25T05:56:40.687Z,91.90
2018-11-25T05:59:38.883Z,91.80
2018-11-25T06:02:37.076Z,91.80
2018-11-25T06:05:35.490Z,91.80
2018-11-25T06:08:33.877Z,91.80
2018-11-25T06:11:32.236Z,92.00
2018-11-25T06:14:30.439Z,91.80
2018-11-25T06:17:28.558Z,92.20
2018-11-25T06:20:34.109Z,92.40
2018-11-25T06:23:32.301Z,92.40
2018-11-25T06:26:30.906Z,92.10
2018-11-25T06:29:28.865Z,92.00
2018-11-25T06:32:27.337Z,92.20
2018-11-25T06:35:26.848Z,92.10
2018-11-25T06:38:24.854Z,92.70
2018-11-25T06:41:23.207Z,92.60
2018-11-25T06:44:21.827Z,92.60
2018-11-25T06:47:20.727Z,92.50
2018-11-25T06:50:20.310Z,92.70
2018-11-25T06:53:18.971Z,92.40
2018-11-25T06:56:17.564Z,92.30
2018-11-25T06:59:16.000Z,92.40
2018-11-25T07:02:14.714Z,92.50
2018-11-25T07:05:13.188Z,92.70
2018-11-25T07:08:11.287Z,92.70
2018-11-25T07:11:09.515Z,92.70
2018-11-25T07:14:07.880Z,92.60
2018-11-25T07:17:06.215Z,92.60
2018-11-25T07:20:04.517Z,92.70
2018-11-25T07:23:02.600Z,92.80
2018-11-25T07:26:01.035Z,92.90
2018-11-25T07:28:59.104Z,93.00
2018-11-25T07:31:57.454Z,92.90
2018-11-25T07:34:55.746Z,92.90
2018-11-25T07:37:53.743Z,93.00
2018-11-25T07:40:51.967Z,93.00
2018-11-25T07:43:49.769Z,92.90
2018-11-25T07:46:48.071Z,93.00
2018-11-25T07:49:46.844Z,93.00
2018-11-25T07:52:45.305Z,93.10
2018-11-25T07:55:45.427Z,93.50
2018-11-25T07:58:43.633Z,93.70
2018-11-25T08:01:41.959Z,93.70
2018-11-25T08:04:40.202Z,93.80
2018-11-25T08:07:38.443Z,93.90
2018-11-25T08:10:37.703Z,94.40
2018-11-25T08:13:36.117Z,94.40
2018-11-25T08:16:34.294Z,94.00
2018-11-25T08:19:34.235Z,93.80
2018-11-25T08:22:32.199Z,93.60
2018-11-25T08:25:33.763Z,93.50
2018-11-25T08:28:32.756Z,93.90
2018-11-25T08:31:30.819Z,93.70
2018-11-25T08:34:29.454Z,93.60
2018-11-25T08:37:27.671Z,93.30
2018-11-25T08:40:27.571Z,93.20
2018-11-25T08:43:25.757Z,93.30
2018-11-25T08:46:23.895Z,93.10
2018-11-25T08:49:22.375Z,93.10
2018-11-25T08:52:20.809Z,93.20
2018-11-25T08:55:20.706Z,93.30
2018-11-25T08:58:24.430Z,93.40
2018-11-25T09:01:23.307Z,93.50
2018-11-25T09:04:21.652Z,93.60
2018-11-25T09:07:19.932Z,93.50
2018-11-25T09:10:18.110Z,93.80
2018-11-25T09:13:18.412Z,93.60
2018-11-25T09:16:16.958Z,93.30
2018-11-25T09:19:15.051Z,93.20
2018-11-25T09:22:13.209Z,93.10
2018-11-25T09:25:11.535Z,93.00
2018-11-25T09:28:09.673Z,92.70
2018-11-25T09:31:07.873Z,92.50
2018-11-25T09:34:05.862Z,92.40
2018-11-25T09:37:04.267Z,91.70
2018-11-25T09:40:02.506Z,90.90
2018-11-25T09:43:00.577Z,90.80
2018-11-25T09:45:58.968Z,91.10
2018-11-25T09:48:57.183Z,91.00
2018-11-25T09:51:55.103Z,91.00
2018-11-25T09:54:53.383Z,91.40
2018-11-25T09:57:51.596Z,91.40
2018-11-25T10:00:51.759Z,91.30
2018-11-25T10:03:50.080Z,91.30
2018-11-25T10:06:48.338Z,91.30
2018-11-25T10:09:47.077Z,91.30
2018-11-25T10:12:45.325Z,90.90
2018-11-25T10:15:44.580Z,90.50
2018-11-25T10:18:42.981Z,90.20
2018-11-25T10:21:40.976Z,89.80
2018-11-25T10:24:39.138Z,89.10
2018-11-25T10:27:37.733Z,87.10
2018-11-25T10:30:38.987Z,86.90
2018-11-25T10:33:37.127Z,87.40
2018-11-25T10:36:35.869Z,86.50
2018-11-25T10:39:34.572Z,85.30
2018-11-25T10:42:32.573Z,83.10
2018-11-25T10:45:37.940Z,80.10
2018-11-25T10:48:36.292Z,78.40
2018-11-25T10:51:34.381Z,76.40
2018-11-25T10:54:32.741Z,76.10
2018-11-25T10:57:31.121Z,72.20
2018-11-25T11:00:53.519Z,71.00
2018-11-25T11:03:57.720Z,68.20
2018-11-25T11:07:01.822Z,66.00
2018-11-25T11:09:59.612Z,64.70
2018-11-25T11:12:58.883Z,62.70
2018-11-25T11:15:56.197Z,60.80
2018-11-25T11:18:54.474Z,59.40
2018-11-25T11:21:52.663Z,58.40
2018-11-25T11:24:51.045Z,57.70
2018-11-25T11:27:49.874Z,57.40
2018-11-25T11:30:47.992Z,56.40
2018-11-25T11:33:46.215Z,54.60
2018-11-25T11:36:44.148Z,54.40
2018-11-25T11:39:42.287Z,52.90
2018-11-25T11:42:40.455Z,52.20
2018-11-25T11:45:38.763Z,51.80
2018-11-25T11:48:37.252Z,50.80
2018-11-25T11:51:35.467Z,51.00
2018-11-25T11:54:34.027Z,49.80
2018-11-25T11:57:32.160Z,48.00
2018-11-25T12:00:42.860Z,46.80
2018-11-25T12:03:41.632Z,46.20
2018-11-25T12:06:39.632Z,45.20
2018-11-25T12:09:38.002Z,45.00
2018-11-25T12:12:36.522Z,46.00
2018-11-25T12:15:37.156Z,46.90
2018-11-25T12:18:35.547Z,48.10
2018-11-25T12:21:34.196Z,48.90
2018-11-25T12:24:32.244Z,49.30
2018-11-25T12:27:30.310Z,50.20
2018-11-25T12:30:29.706Z,51.40
2018-11-25T12:33:29.299Z,52.40
2018-11-25T12:36:27.893Z,53.90
2018-11-25T12:39:28.516Z,55.00
2018-11-25T12:42:24.799Z,55.90
2018-11-25T12:45:24.044Z,56.20
2018-11-25T12:48:30.446Z,55.80
2018-11-25T12:51:28.619Z,54.50
2018-11-25T12:54:26.757Z,52.70
2018-11-25T12:57:25.532Z,50.70
2018-11-25T13:00:33.636Z,48.80
2018-11-25T13:03:32.839Z,46.20
2018-11-25T13:06:31.074Z,44.90
2018-11-25T13:09:30.598Z,45.00
2018-11-25T13:12:29.164Z,45.50
2018-11-25T13:15:27.545Z,46.70
2018-11-25T13:18:25.890Z,46.90
2018-11-25T13:21:24.157Z,46.80
2018-11-25T13:24:22.903Z,47.30
2018-11-25T13:27:20.747Z,48.20
2018-11-25T13:30:20.261Z,49.30
2018-11-25T13:33:21.315Z,50.40
2018-11-25T13:36:20.507Z,51.00
2018-11-25T13:39:18.984Z,50.90
2018-11-25T13:42:17.642Z,51.00
2018-11-25T13:45:15.983Z,51.10
2018-11-25T13:48:14.263Z,51.60
2018-11-25T13:51:19.284Z,52.40
2018-11-25T13:54:21.165Z,53.70
2018-11-25T13:57:19.636Z,54.10
2018-11-25T14:00:18.702Z,55.10
2018-11-25T14:03:17.069Z,55.80
2018-11-25T14:06:15.433Z,56.50
2018-11-25T14:09:15.120Z,57.20
2018-11-25T14:12:13.476Z,57.90
2018-11-25T14:15:11.788Z,58.30
2018-11-25T14:18:10.159Z,58.80
2018-11-25T14:21:08.341Z,59.40
2018-11-25T14:24:06.649Z,59.90
2018-11-25T14:27:08.625Z,60.70
2018-11-25T14:30:13.222Z,61.10
2018-11-25T14:33:06.172Z,61.50
2018-11-25T14:36:04.638Z,62.10
2018-11-25T14:39:03.002Z,62.80
2018-11-25T14:42:01.011Z,63.40
2018-11-25T14:45:00.602Z,64.50
2018-11-25T14:48:01.233Z,64.80
2018-11-25T14:50:59.651Z,65.40
2018-11-25T14:53:57.834Z,66.50
2018-11-25T14:56:56.472Z,66.90
2018-11-25T14:59:54.724Z,66.90
2018-11-25T15:02:53.214Z,67.50
2018-11-25T15:05:54.362Z,67.90
2018-11-25T15:08:52.444Z,68.40
2018-11-25T15:11:51.209Z,68.90
2018-11-25T15:14:50.052Z,69.00
2018-11-25T15:17:48.329Z,70.20
2018-11-25T15:20:46.688Z,70.30
2018-11-25T15:23:44.978Z,70.70
2018-11-25T15:26:43.229Z,70.90
2018-11-25T15:29:41.483Z,71.20
2018-11-25T15:32:39.826Z,71.80
2018-11-25T15:35:37.902Z,71.80
2018-11-25T15:38:36.384Z,71.90
2018-11-25T15:41:34.754Z,73.40
2018-11-25T15:44:33.033Z,73.50
2018-11-25T15:47:31.908Z,73.80
2018-11-25T15:50:35.094Z,74.10
2018-11-25T15:53:33.439Z,74.10
2018-11-25T15:56:33.187Z,74.30
2018-11-25T15:59:31.720Z,74.60
2018-11-25T16:02:30.272Z,74.70
2018-11-25T16:05:30.809Z,75.20
2018-11-25T16:08:28.851Z,75.90
2018-11-25T16:11:28.372Z,76.50
2018-11-25T16:14:26.945Z,76.10
2018-11-25T16:17:25.306Z,78.00
2018-11-25T16:20:25.523Z,78.30
2018-11-25T16:23:27.971Z,79.30
2018-11-25T16:26:35.789Z,79.50
2018-11-25T16:29:38.027Z,79.80
2018-11-25T16:32:36.274Z,80.10
2018-11-25T16:35:34.637Z,80.80
2018-11-25T16:38:32.519Z,80.80
2018-11-25T16:41:30.695Z,80.60
2018-11-25T16:44:28.949Z,80.60
2018-11-25T16:47:27.311Z,80.70
2018-11-25T16:50:27.078Z,80.80
2018-11-25T16:53:25.347Z,81.10
2018-11-25T16:56:23.506Z,81.20
2018-11-25T16:59:21.563Z,82.00
2018-11-25T17:02:20.865Z,82.70
2018-11-25T17:05:21.064Z,83.00
2018-11-25T17:08:24.666Z,83.10
2018-11-25T17:11:23.252Z,83.70
2018-11-25T17:14:21.520Z,83.10
2018-11-25T17:17:20.475Z,83.00
2018-11-25T17:20:18.867Z,83.30
2018-11-25T17:23:17.441Z,82.70
2018-11-25T17:26:15.808Z,82.90
2018-11-25T17:29:14.054Z,83.60
2018-11-25T17:32:11.891Z,83.80
2018-11-25T17:35:10.294Z,84.00
2018-11-25T17:38:08.347Z,83.60
2018-11-25T17:41:07.004Z,83.70
2018-11-25T17:44:05.494Z,83.80
2018-11-25T17:47:04.259Z,84.50
2018-11-25T17:50:02.628Z,85.60
2018-11-25T17:53:01.064Z,85.60
2018-11-25T17:55:59.249Z,86.40
2018-11-25T17:58:58.675Z,86.30
2018-11-25T18:01:57.136Z,85.70
2018-11-25T18:04:55.563Z,86.10
2018-11-25T18:07:54.746Z,85.70
2018-11-25T18:10:52.958Z,86.30
2018-11-25T18:13:53.109Z,85.50
2018-11-25T18:16:51.567Z,86.20
2018-11-25T18:19:49.672Z,86.80
2018-11-25T18:22:49.939Z,86.30
2018-11-25T18:25:48.338Z,87.50
2018-11-25T18:28:46.881Z,87.70
2018-11-25T18:31:45.315Z,87.80
2018-11-25T18:34:44.817Z,87.90
2018-11-25T18:37:43.458Z,87.80
2018-11-25T18:40:41.666Z,88.00
2018-11-25T18:43:40.325Z,87.80
2018-11-25T18:46:46.505Z,88.40
2018-11-25T18:49:39.208Z,88.40
2018-11-25T18:52:37.646Z,88.10
2018-11-25T18:55:35.715Z,88.90
2018-11-25T18:58:34.457Z,88.80
2018-11-25T19:01:43.968Z,88.80
2018-11-25T19:04:42.060Z,88.90
2018-11-25T19:07:40.639Z,89.00
2018-11-25T19:10:39.916Z,89.00
2018-11-25T19:13:38.199Z,89.30
2018-11-25T19:16:37.650Z,89.60
2018-11-25T19:19:34.735Z,89.50
2018-11-25T19:22:33.130Z,89.40
2018-11-25T19:25:33.415Z,89.60
2018-11-25T19:28:32.942Z,89.60
2018-11-25T19:31:31.043Z,89.50
2018-11-25T19:34:29.795Z,89.50
2018-11-25T19:37:27.912Z,89.30
2018-11-25T19:40:34.627Z,88.80
2018-11-25T19:43:32.711Z,88.90
2018-11-25T19:46:30.868Z,88.70
2018-11-25T19:49:29.201Z,88.40
2018-11-25T19:52:27.197Z,88.10
2018-11-25T19:55:25.512Z,88.00
2018-11-25T19:58:23.829Z,87.70
2018-11-25T20:01:22.255Z,87.50
2018-11-25T20:04:20.441Z,87.40
2018-11-25T20:07:18.677Z,87.20
2018-11-25T20:10:17.097Z,87.10
2018-11-25T20:13:18.267Z,86.80
2018-11-25T20:16:22.534Z,87.00
2018-11-25T20:19:20.816Z,86.90
2018-11-25T20:22:25.113Z,86.80
2018-11-25T20:25:25.198Z,86.50
2018-11-25T20:28:23.637Z,86.10
2018-11-25T20:31:21.762Z,85.70
2018-11-25T20:34:20.007Z,85.60
2018-11-25T20:37:18.278Z,85.40
2018-11-25T20:40:16.546Z,85.10
2018-11-25T20:43:14.667Z,85.00
2018-11-25T20:46:18.777Z,84.70
2018-11-25T20:50:19.894Z,85.10
2018-11-25T20:53:23.774Z,84.50
2018-11-25T20:56:22.436Z,84.50
2018-11-25T20:59:20.685Z,84.80
2018-11-25T21:02:20.356Z,84.80
2018-11-25T21:05:17.732Z,84.80
2018-11-25T21:08:15.913Z,84.60
2018-11-25T21:11:14.069Z,84.60
2018-11-25T21:14:12.453Z,84.60
2018-11-25T21:17:10.419Z,84.60
2018-11-25T21:20:08.772Z,84.60
2018-11-25T21:23:07.315Z,84.60
2018-11-25T21:26:05.969Z,84.70
2018-11-25T21:29:04.087Z,84.90
2018-11-25T21:32:02.555Z,84.80
2018-11-25T21:35:01.019Z,84.80
2018-11-25T21:37:59.375Z,84.70
2018-11-25T21:40:57.925Z,84.80
2018-11-25T21:43:56.329Z,84.90
2018-11-25T21:46:56.246Z,84.90
2018-11-25T21:49:55.108Z,85.00
2018-11-25T21:52:53.821Z,85.00
2018-11-25T21:58:50.714Z,85.00
2018-11-25T22:01:49.222Z,85.10
2018-11-25T22:04:47.859Z,85.70
2018-11-25T22:07:46.156Z,85.20
2018-11-25T22:10:44.911Z,85.80
2018-11-25T22:13:43.598Z,85.10
2018-11-25T22:16:41.950Z,85.30
2018-11-25T22:19:40.227Z,85.20
2018-11-25T22:22:38.679Z,85.30
2018-11-25T22:25:38.185Z,85.30
2018-11-25T22:28:36.449Z,85.50
2018-11-25T22:31:34.886Z,85.30
2018-11-25T22:34:33.130Z,85.40
2018-11-25T22:37:31.425Z,85.10
2018-11-25T22:40:30.695Z,85.30
2018-11-25T22:43:29.215Z,86.10
2018-11-25T22:46:29.140Z,85.30
2018-11-25T22:49:27.534Z,85.30
2018-11-25T22:52:25.415Z,85.30
2018-11-25T22:55:33.102Z,85.30
2018-11-25T22:58:31.482Z,85.40
2018-11-25T23:01:29.543Z,85.50
2018-11-25T23:04:49.799Z,85.40
2018-11-25T23:07:47.855Z,85.80
2018-11-25T23:10:46.336Z,85.90
2018-11-25T23:13:44.540Z,85.70
2018-11-25T23:16:43.092Z,86.10
2018-11-25T23:19:43.034Z,85.70
2018-11-25T23:22:41.457Z,85.90
2018-11-25T23:25:39.575Z,85.70
2018-11-25T23:28:37.974Z,85.70
2018-11-25T23:31:36.368Z,85.40
2018-11-25T23:34:34.518Z,85.40
2018-11-25T23:37:35.778Z,85.40
2018-11-25T23:40:37.732Z,85.40
2018-11-25T23:43:36.594Z,85.40
2018-11-25T23:46:35.559Z,85.40
2018-11-25T23:49:33.711Z,85.20
2018-11-25T23:52:31.752Z,85.30
2018-11-25T23:55:30.940Z,85.30
2018-11-25T23:58:29.202Z,85.10
